BIER2 EDLW-EDDF
Flight info
| Callsign | BIER2 |
|---|---|
| Flight time | N/A |
| Altitude | 8000 |
| Route | GMH8Q GMH DCT COL/N0272F110 T911 ROLIS ROLIS5D |
| Aircraft | TBM9/L-SDFGRWY/S |
Departure
| Time | 2026-04-30 10:47 |
|---|---|
| Airport | Dortmund Airport (EDLW) |
Arrival
| Time | N/A |
|---|---|
| Airport | Frankfurt Main Airport (EDDF) |
| Time | Latitude | Longitude | Altitude | Speed | Heading |
|---|---|---|---|---|---|
| 2026-04-30 10:40 | 51.51220 | 7.60460 | 458 ft | 0 kts | 197° |
| 2026-04-30 10:45 | 51.51212 | 7.60457 | 459 ft | 6 kts | 193° |
| 2026-04-30 10:45 | 51.51197 | 7.60414 | 460 ft | 13 kts | 265° |
| 2026-04-30 10:46 | 51.51159 | 7.60241 | 458 ft | 16 kts | 259° |
| 2026-04-30 10:46 | 51.51239 | 7.60291 | 441 ft | 42 kts | 58° |
| 2026-04-30 10:46 | 51.51359 | 7.60629 | 440 ft | 0 kts | 63° |
| 2026-04-30 10:46 | 51.51554 | 7.61044 | 427 ft | 20 kts | 295° |
| 2026-04-30 10:47 | 51.51557 | 7.60574 | 420 ft | 35 kts | 354° |
| 2026-04-30 10:47 | 51.51746 | 7.60958 | 427 ft | 75 kts | 57° |
| 2026-04-30 10:47 | 51.52076 | 7.61811 | 798 ft | 94 kts | 68° |
| 2026-04-30 10:47 | 51.52369 | 7.62783 | 1407 ft | 107 kts | 65° |
| 2026-04-30 10:48 | 51.52759 | 7.63898 | 2150 ft | 113 kts | 65° |
| 2026-04-30 10:48 | 51.53130 | 7.64976 | 2889 ft | 111 kts | 65° |
| 2026-04-30 10:48 | 51.53515 | 7.66060 | 3741 ft | 114 kts | 68° |
| 2026-04-30 10:48 | 51.53538 | 7.67259 | 4492 ft | 111 kts | 104° |
| 2026-04-30 10:49 | 51.53172 | 7.68356 | 5160 ft | 115 kts | 127° |
| 2026-04-30 10:49 | 51.52467 | 7.69049 | 5781 ft | 125 kts | 152° |
| 2026-04-30 10:49 | 51.51626 | 7.69489 | 6406 ft | 128 kts | 151° |
| 2026-04-30 10:49 | 51.50775 | 7.69989 | 7049 ft | 132 kts | 151° |
| 2026-04-30 10:50 | 51.49898 | 7.70487 | 7669 ft | 136 kts | 152° |
| 2026-04-30 10:50 | 51.49003 | 7.70998 | 8310 ft | 138 kts | 152° |
| 2026-04-30 10:50 | 51.48096 | 7.71519 | 8939 ft | 140 kts | 151° |
| 2026-04-30 10:50 | 51.47173 | 7.72044 | 9562 ft | 142 kts | 152° |
| 2026-04-30 10:51 | 51.46230 | 7.72583 | 10215 ft | 145 kts | 152° |
| 2026-04-30 10:51 | 51.45269 | 7.73130 | 10809 ft | 147 kts | 152° |
| 2026-04-30 10:51 | 51.44299 | 7.73699 | 11377 ft | 152 kts | 152° |
| 2026-04-30 10:51 | 51.43176 | 7.74352 | 11445 ft | 191 kts | 154° |
| 2026-04-30 10:52 | 51.41801 | 7.75115 | 11442 ft | 224 kts | 156° |
| 2026-04-30 10:52 | 51.40263 | 7.75966 | 11442 ft | 243 kts | 156° |
| 2026-04-30 10:52 | 51.38622 | 7.76896 | 11439 ft | 256 kts | 156° |
| 2026-04-30 10:52 | 51.36913 | 7.77872 | 11434 ft | 265 kts | 156° |
| 2026-04-30 10:53 | 51.35169 | 7.78871 | 11432 ft | 268 kts | 156° |
| 2026-04-30 10:53 | 51.33422 | 7.79868 | 11432 ft | 270 kts | 156° |
| 2026-04-30 10:53 | 51.31646 | 7.80881 | 11430 ft | 272 kts | 156° |
| 2026-04-30 10:53 | 51.29860 | 7.81889 | 11435 ft | 273 kts | 157° |
| 2026-04-30 10:54 | 51.28068 | 7.82907 | 11422 ft | 274 kts | 156° |
| 2026-04-30 10:54 | 51.26271 | 7.83944 | 11422 ft | 274 kts | 156° |
| 2026-04-30 10:54 | 51.24479 | 7.84965 | 11420 ft | 273 kts | 157° |
| 2026-04-30 10:54 | 51.22688 | 7.85976 | 11421 ft | 274 kts | 156° |
| 2026-04-30 10:55 | 51.20893 | 7.86995 | 11425 ft | 274 kts | 157° |
| 2026-04-30 10:55 | 51.19064 | 7.87919 | 11424 ft | 278 kts | 165° |
| 2026-04-30 10:55 | 51.17124 | 7.88132 | 11425 ft | 281 kts | 180° |
| 2026-04-30 10:55 | 51.15187 | 7.87575 | 11422 ft | 286 kts | 195° |
| 2026-04-30 10:56 | 51.13353 | 7.86294 | 11424 ft | 289 kts | 204° |
| 2026-04-30 10:56 | 51.11550 | 7.84885 | 11412 ft | 288 kts | 203° |
| 2026-04-30 10:56 | 51.09742 | 7.83509 | 11409 ft | 288 kts | 204° |
| 2026-04-30 10:56 | 51.07944 | 7.82119 | 11412 ft | 287 kts | 204° |
| 2026-04-30 10:57 | 51.06173 | 7.80739 | 11412 ft | 287 kts | 204° |
| 2026-04-30 10:57 | 51.04372 | 7.79350 | 11413 ft | 287 kts | 204° |
| 2026-04-30 10:57 | 51.02575 | 7.77959 | 11408 ft | 287 kts | 204° |
| 2026-04-30 10:57 | 51.00774 | 7.76573 | 11407 ft | 287 kts | 204° |
| 2026-04-30 10:58 | 50.98981 | 7.75183 | 11406 ft | 288 kts | 204° |
| 2026-04-30 10:58 | 50.97178 | 7.73803 | 11408 ft | 287 kts | 204° |
| 2026-04-30 10:58 | 50.95374 | 7.72415 | 11396 ft | 288 kts | 204° |
| 2026-04-30 10:58 | 50.93571 | 7.71032 | 11398 ft | 288 kts | 204° |
| 2026-04-30 10:59 | 50.91769 | 7.69645 | 11411 ft | 288 kts | 204° |
| 2026-04-30 10:59 | 50.89966 | 7.68262 | 11396 ft | 288 kts | 204° |
| 2026-04-30 10:59 | 50.88166 | 7.66880 | 11407 ft | 287 kts | 204° |
| 2026-04-30 10:59 | 50.86330 | 7.65632 | 11382 ft | 286 kts | 193° |
| 2026-04-30 11:00 | 50.84387 | 7.65459 | 11392 ft | 279 kts | 170° |
| 2026-04-30 11:00 | 50.82481 | 7.65998 | 11412 ft | 278 kts | 165° |
| 2026-04-30 11:00 | 50.80590 | 7.66636 | 11401 ft | 279 kts | 165° |
| 2026-04-30 11:00 | 50.78688 | 7.67293 | 11392 ft | 280 kts | 164° |